createdAt,value
2018-12-09T00:00:21.186Z,9.47
2018-12-09T00:01:28.802Z,9.32
2018-12-09T00:02:21.148Z,9.19
2018-12-09T00:03:21.128Z,9.03
2018-12-09T00:04:21.110Z,8.85
2018-12-09T00:05:21.130Z,8.88
2018-12-09T00:06:21.116Z,8.71
2018-12-09T00:07:21.084Z,8.74
2018-12-09T00:08:28.666Z,8.63
2018-12-09T00:09:21.056Z,8.68
2018-12-09T00:10:21.093Z,8.57
2018-12-09T00:11:21.034Z,8.56
2018-12-09T00:12:21.026Z,8.65
2018-12-09T00:13:21.017Z,8.60
2018-12-09T00:14:21.042Z,8.65
2018-12-09T00:15:20.995Z,8.71
2018-12-09T00:16:21.006Z,8.70
2018-12-09T00:17:20.966Z,8.71
2018-12-09T00:18:20.956Z,8.75
2018-12-09T00:19:20.977Z,8.67
2018-12-09T00:20:20.937Z,8.81
2018-12-09T00:21:20.946Z,8.80
2018-12-09T00:22:20.947Z,8.89
2018-12-09T00:23:20.903Z,8.90
2018-12-09T00:24:20.893Z,8.98
2018-12-09T00:25:20.883Z,9.14
2018-12-09T00:26:20.886Z,9.23
2018-12-09T00:27:20.857Z,9.22
2018-12-09T00:28:20.850Z,9.22
2018-12-09T00:29:20.835Z,9.30
2018-12-09T00:30:20.825Z,9.34
2018-12-09T00:31:20.843Z,9.36
2018-12-09T00:32:20.805Z,9.33
2018-12-09T00:33:20.798Z,9.44
2018-12-09T00:34:20.782Z,9.52
2018-12-09T00:35:20.774Z,9.42
2018-12-09T00:36:20.759Z,9.51
2018-12-09T00:37:20.861Z,9.54
2018-12-09T00:38:20.738Z,9.55
2018-12-09T00:39:20.727Z,9.55
2018-12-09T00:40:20.714Z,9.57
2018-12-09T00:41:20.711Z,9.54
2018-12-09T00:42:20.754Z,9.51
2018-12-09T00:43:20.681Z,9.47
2018-12-09T00:44:20.674Z,9.50
2018-12-09T00:45:20.659Z,9.59
2018-12-09T00:46:20.649Z,9.55
2018-12-09T00:47:20.655Z,9.57
2018-12-09T00:48:20.633Z,9.60
2018-12-09T00:49:20.616Z,9.67
2018-12-09T00:50:20.605Z,9.65
2018-12-09T00:51:20.595Z,9.62
2018-12-09T00:52:20.605Z,9.60
2018-12-09T00:53:20.570Z,9.67
2018-12-09T00:54:20.565Z,9.62
2018-12-09T00:55:20.563Z,9.70
2018-12-09T00:56:20.541Z,9.73
2018-12-09T00:57:20.550Z,9.75
2018-12-09T00:58:20.518Z,9.73
2018-12-09T00:59:20.505Z,9.84
2018-12-09T01:00:20.494Z,9.85
2018-12-09T01:01:20.484Z,9.78
2018-12-09T01:02:20.474Z,9.73
2018-12-09T01:03:20.487Z,9.78
2018-12-09T01:04:20.455Z,9.75
2018-12-09T01:05:20.493Z,9.81
2018-12-09T01:06:20.446Z,9.80
2018-12-09T01:07:20.451Z,9.88
2018-12-09T01:08:20.413Z,9.84
2018-12-09T01:09:20.399Z,9.88
2018-12-09T01:10:20.393Z,9.87
2018-12-09T01:11:20.379Z,9.91
2018-12-09T01:12:20.361Z,9.88
2018-12-09T01:13:20.372Z,9.77
2018-12-09T01:14:20.348Z,9.84
2018-12-09T01:15:20.330Z,9.90
2018-12-09T01:16:20.317Z,9.85
2018-12-09T01:17:20.309Z,9.90
2018-12-09T01:18:20.328Z,9.91
2018-12-09T01:19:20.287Z,9.96
2018-12-09T01:20:20.293Z,9.93
2018-12-09T01:21:20.267Z,9.93
2018-12-09T01:22:20.256Z,9.96
2018-12-09T01:23:20.246Z,9.99
2018-12-09T01:24:20.260Z,9.98
2018-12-09T01:25:20.220Z,9.96
2018-12-09T01:26:20.210Z,9.94
2018-12-09T01:27:20.205Z,9.96
2018-12-09T01:28:20.185Z,10.03
2018-12-09T01:29:20.202Z,10.02
2018-12-09T01:30:20.194Z,9.99
2018-12-09T01:31:20.174Z,9.91
2018-12-09T01:32:20.163Z,9.94
2018-12-09T01:33:20.142Z,10.05
2018-12-09T01:34:20.127Z,9.98
2018-12-09T01:35:20.131Z,9.99
2018-12-09T01:36:20.102Z,10.01
2018-12-09T01:37:20.091Z,10.03
2018-12-09T01:38:20.096Z,10.03
2018-12-09T01:39:20.086Z,10.09
2018-12-09T01:40:20.085Z,9.98
2018-12-09T01:41:20.082Z,9.94
2018-12-09T01:42:20.035Z,9.99
2018-12-09T01:43:20.029Z,10.02
2018-12-09T01:44:20.014Z,9.91
2018-12-09T01:45:20.035Z,10.08
2018-12-09T01:46:20.017Z,10.01
2018-12-09T01:47:19.983Z,9.91
2018-12-09T01:48:19.981Z,9.93
2018-12-09T01:49:19.957Z,9.93
2018-12-09T01:50:19.973Z,10.03
2018-12-09T01:51:19.949Z,9.98
2018-12-09T01:52:19.965Z,10.05
2018-12-09T01:53:19.914Z,9.94
2018-12-09T01:54:19.901Z,10.02
2018-12-09T01:55:19.957Z,10.01
2018-12-09T01:56:19.883Z,9.96
2018-12-09T01:57:19.890Z,9.96
2018-12-09T01:58:19.857Z,9.94
2018-12-09T01:59:19.854Z,10.02
2018-12-09T02:00:19.840Z,10.02
2018-12-09T02:01:19.843Z,10.02
2018-12-09T02:02:19.818Z,9.93
2018-12-09T02:03:19.847Z,10.01
2018-12-09T02:04:19.794Z,10.05
2018-12-09T02:05:19.825Z,10.08
2018-12-09T02:06:19.781Z,10.05
2018-12-09T02:07:19.760Z,10.05
2018-12-09T02:08:19.753Z,10.03
2018-12-09T02:09:19.790Z,10.06
2018-12-09T02:10:19.725Z,10.05
2018-12-09T02:11:19.737Z,9.99
2018-12-09T02:12:19.712Z,9.93
2018-12-09T02:13:19.716Z,9.98
2018-12-09T02:14:19.684Z,9.94
2018-12-09T02:15:19.669Z,9.98
2018-12-09T02:16:19.680Z,9.91
2018-12-09T02:17:19.651Z,9.94
2018-12-09T02:18:19.638Z,9.96
2018-12-09T02:19:19.628Z,9.93
2018-12-09T02:20:19.614Z,9.94
2018-12-09T02:21:19.622Z,9.90
2018-12-09T02:22:19.599Z,9.96
2018-12-09T02:23:19.581Z,9.90
2018-12-09T02:24:19.589Z,9.85
2018-12-09T02:25:19.561Z,9.87
2018-12-09T02:26:19.575Z,9.83
2018-12-09T02:27:19.585Z,9.88
2018-12-09T02:28:19.539Z,9.80
2018-12-09T02:29:19.552Z,9.77
2018-12-09T02:30:19.508Z,9.78
2018-12-09T02:31:19.498Z,9.78
2018-12-09T02:32:19.572Z,9.80
2018-12-09T02:33:19.543Z,9.80
2018-12-09T02:34:19.573Z,9.75
2018-12-09T02:35:19.504Z,9.87
2018-12-09T02:36:19.443Z,9.90
2018-12-09T02:37:19.427Z,9.87
2018-12-09T02:38:19.443Z,9.98
2018-12-09T02:39:19.431Z,9.98
2018-12-09T02:40:19.472Z,9.96
2018-12-09T02:41:19.407Z,9.85
2018-12-09T02:42:19.374Z,9.80
2018-12-09T02:43:19.383Z,9.81
2018-12-09T02:44:19.377Z,9.84
2018-12-09T02:45:19.396Z,9.81
2018-12-09T02:46:19.335Z,9.75
2018-12-09T02:47:19.324Z,9.78
2018-12-09T02:48:19.337Z,9.87
2018-12-09T02:49:19.300Z,9.83
2018-12-09T02:50:19.358Z,9.83
2018-12-09T02:51:19.286Z,9.77
2018-12-09T02:52:19.260Z,9.70
2018-12-09T02:53:19.264Z,9.69
2018-12-09T02:54:19.282Z,9.69
2018-12-09T02:55:19.226Z,9.75
2018-12-09T02:56:19.255Z,9.67
2018-12-09T02:57:19.288Z,9.81
2018-12-09T02:58:19.229Z,9.83
2018-12-09T02:59:19.190Z,9.73
2018-12-09T03:00:19.205Z,9.69
2018-12-09T03:01:19.164Z,9.84
2018-12-09T03:02:19.172Z,9.85
2018-12-09T03:03:19.142Z,9.83
2018-12-09T03:04:19.164Z,9.81
2018-12-09T03:05:19.122Z,9.84
2018-12-09T03:06:19.114Z,9.85
2018-12-09T03:07:19.096Z,9.85
2018-12-09T03:08:19.123Z,9.83
2018-12-09T03:09:19.079Z,9.73
2018-12-09T03:10:19.084Z,9.88
2018-12-09T03:11:19.174Z,9.93
2018-12-09T03:12:19.041Z,9.88
2018-12-09T03:13:19.063Z,9.88
2018-12-09T03:14:19.025Z,9.81
2018-12-09T03:15:19.026Z,9.78
2018-12-09T03:16:19.002Z,9.73
2018-12-09T03:17:18.985Z,9.70
2018-12-09T03:18:18.979Z,9.67
2018-12-09T03:19:18.966Z,9.52
2018-12-09T03:20:18.993Z,9.45
2018-12-09T03:21:18.945Z,9.32
2018-12-09T03:22:18.945Z,9.14
2018-12-09T03:23:18.922Z,9.03
2018-12-09T03:24:18.912Z,9.09
2018-12-09T03:25:18.900Z,8.95
2018-12-09T03:26:18.949Z,8.98
2018-12-09T03:27:18.905Z,8.93
2018-12-09T03:28:18.879Z,8.89
2018-12-09T03:29:18.856Z,8.83
2018-12-09T03:30:18.851Z,8.81
2018-12-09T03:31:18.843Z,8.80
2018-12-09T03:32:18.854Z,8.81
2018-12-09T03:33:18.834Z,8.74
2018-12-09T03:34:18.805Z,8.78
2018-12-09T03:35:18.875Z,8.74
2018-12-09T03:36:18.781Z,8.75
2018-12-09T03:37:18.806Z,8.72
2018-12-09T03:38:18.868Z,8.80
2018-12-09T03:39:18.751Z,8.67
2018-12-09T03:40:18.740Z,8.60
2018-12-09T03:41:18.735Z,8.60
2018-12-09T03:42:18.730Z,8.56
2018-12-09T03:43:18.729Z,8.49
2018-12-09T03:44:18.696Z,8.52
2018-12-09T03:45:18.688Z,8.49
2018-12-09T03:46:18.671Z,8.53
2018-12-09T03:47:18.662Z,8.44
2018-12-09T03:48:18.694Z,8.38
2018-12-09T03:49:18.641Z,8.39
2018-12-09T03:50:18.649Z,8.19
2018-12-09T03:51:18.619Z,8.21
2018-12-09T03:52:18.614Z,8.21
2018-12-09T03:53:18.597Z,8.17
2018-12-09T03:54:18.664Z,8.12
2018-12-09T03:55:18.581Z,8.10
2018-12-09T03:56:18.566Z,8.12
2018-12-09T03:57:18.552Z,8.04
2018-12-09T03:58:18.542Z,8.01
2018-12-09T03:59:18.559Z,7.99
2018-12-09T04:00:18.530Z,7.94
2018-12-09T04:01:18.509Z,7.87
2018-12-09T04:02:18.496Z,7.91
2018-12-09T04:03:18.488Z,7.92
2018-12-09T04:04:18.503Z,7.83
2018-12-09T04:05:18.485Z,7.77
2018-12-09T04:06:18.688Z,7.64
2018-12-09T04:07:18.718Z,7.54
2018-12-09T04:08:19.069Z,7.62
2018-12-09T04:09:19.391Z,7.54
2018-12-09T04:10:19.491Z,7.60
2018-12-09T04:11:19.603Z,7.50
2018-12-09T04:12:18.463Z,7.39
2018-12-09T04:13:18.469Z,7.43
2018-12-09T04:14:18.512Z,7.25
2018-12-09T04:15:18.939Z,7.33
2018-12-09T04:16:18.541Z,7.28
2018-12-09T04:17:18.479Z,7.33
2018-12-09T04:18:19.304Z,7.29
2018-12-09T04:19:18.606Z,7.29
2018-12-09T04:20:18.619Z,7.28
2018-12-09T04:21:18.918Z,7.22
2018-12-09T04:22:18.457Z,7.28
2018-12-09T04:23:19.997Z,7.29
2018-12-09T04:24:18.919Z,7.39
2018-12-09T04:25:18.377Z,7.25
2018-12-09T04:26:18.966Z,7.39
2018-12-09T04:27:19.087Z,7.39
2018-12-09T04:28:18.257Z,7.37
2018-12-09T04:29:18.310Z,7.40
2018-12-09T04:30:18.488Z,7.44
2018-12-09T04:31:18.208Z,7.54
2018-12-09T04:32:18.201Z,7.50
2018-12-09T04:33:18.839Z,7.47
2018-12-09T04:34:18.367Z,7.52
2018-12-09T04:35:18.443Z,7.54
2018-12-09T04:36:18.277Z,7.64
2018-12-09T04:37:18.302Z,7.55
2018-12-09T04:38:18.160Z,7.55
2018-12-09T04:39:18.350Z,7.62
2018-12-09T04:40:18.367Z,7.58
2018-12-09T04:41:18.461Z,7.58
2018-12-09T04:42:18.326Z,7.60
2018-12-09T04:43:18.286Z,7.57
2018-12-09T04:44:18.520Z,7.57
2018-12-09T04:45:18.249Z,7.58
2018-12-09T04:46:18.229Z,7.57
2018-12-09T04:47:18.178Z,7.58
2018-12-09T04:48:18.355Z,7.58
2018-12-09T04:49:18.251Z,7.61
2018-12-09T04:50:18.341Z,7.58
2018-12-09T04:51:18.142Z,7.52
2018-12-09T04:52:18.085Z,7.52
2018-12-09T04:53:18.096Z,7.60
2018-12-09T04:54:18.031Z,7.61
2018-12-09T04:55:18.048Z,7.49
2018-12-09T04:56:17.924Z,7.57
2018-12-09T04:57:17.910Z,7.60
2018-12-09T04:58:17.936Z,7.66
2018-12-09T05:00:34.188Z,7.61
2018-12-09T05:01:34.326Z,7.73
2018-12-09T05:02:34.098Z,7.68
2018-12-09T05:03:41.653Z,7.64
2018-12-09T05:04:34.112Z,7.71
2018-12-09T05:05:34.098Z,7.69
2018-12-09T05:06:34.104Z,7.71
2018-12-09T05:07:34.119Z,7.69
2018-12-09T05:08:34.088Z,7.62
2018-12-09T05:09:33.973Z,7.64
2018-12-09T05:10:33.959Z,7.64
2018-12-09T05:11:33.985Z,7.73
2018-12-09T05:12:33.940Z,7.74
2018-12-09T05:13:33.929Z,7.73
2018-12-09T05:14:33.930Z,7.74
2018-12-09T05:15:33.905Z,7.80
2018-12-09T05:16:33.921Z,7.84
2018-12-09T05:17:33.880Z,7.83
2018-12-09T05:18:33.874Z,7.78
2018-12-09T05:19:33.863Z,7.76
2018-12-09T05:20:33.846Z,7.81
2018-12-09T05:21:33.837Z,7.86
2018-12-09T05:22:33.854Z,7.88
2018-12-09T05:23:33.819Z,7.98
2018-12-09T05:24:33.806Z,7.98
2018-12-09T05:25:33.822Z,8.09
2018-12-09T05:26:33.783Z,8.09
2018-12-09T05:27:33.774Z,8.17
2018-12-09T05:28:33.782Z,8.24
2018-12-09T05:29:33.753Z,8.24
2018-12-09T05:30:33.741Z,8.46
2018-12-09T05:31:33.739Z,8.46
2018-12-09T05:32:33.715Z,8.38
2018-12-09T05:33:33.726Z,8.52
2018-12-09T05:34:33.695Z,8.60
2018-12-09T05:35:33.764Z,8.56
2018-12-09T05:36:33.681Z,8.56
2018-12-09T05:37:33.665Z,8.56
2018-12-09T05:38:33.685Z,8.55
2018-12-09T05:39:33.649Z,8.50
2018-12-09T05:40:33.637Z,8.55
2018-12-09T05:41:33.684Z,8.60
2018-12-09T05:42:33.614Z,8.52
2018-12-09T05:43:33.597Z,8.39
2018-12-09T05:44:44.982Z,8.39
2018-12-09T05:45:33.619Z,8.37
2018-12-09T05:46:33.597Z,8.28
2018-12-09T05:47:33.735Z,8.23
2018-12-09T05:48:33.595Z,8.20
2018-12-09T05:49:33.629Z,8.12
2018-12-09T05:50:33.551Z,8.10
2018-12-09T05:51:33.507Z,8.06
2018-12-09T05:52:41.135Z,7.99
2018-12-09T05:53:42.297Z,7.88
2018-12-09T05:55:43.896Z,7.96
2018-12-09T05:56:43.757Z,7.88
2018-12-09T05:57:44.742Z,7.92
2018-12-09T05:58:43.787Z,7.91
2018-12-09T05:59:43.694Z,7.87
2018-12-09T06:00:43.679Z,7.77
2018-12-09T06:01:43.687Z,7.86
2018-12-09T06:02:43.638Z,7.78
2018-12-09T06:03:43.627Z,7.83
2018-12-09T06:04:43.628Z,7.83
2018-12-09T06:05:43.636Z,7.77
2018-12-09T06:06:43.593Z,7.74
2018-12-09T06:07:43.583Z,7.77
2018-12-09T06:09:33.528Z,7.81
2018-12-09T06:10:33.537Z,7.76
2018-12-09T06:11:33.507Z,7.74
2018-12-09T06:12:33.539Z,7.83
2018-12-09T06:13:33.479Z,7.77
2018-12-09T06:14:33.475Z,7.77
2018-12-09T06:15:33.523Z,7.69
2018-12-09T06:16:33.453Z,7.71
2018-12-09T06:17:33.438Z,7.77
2018-12-09T06:18:33.426Z,7.77
2018-12-09T06:19:40.968Z,7.66
2018-12-09T06:20:43.300Z,7.68
2018-12-09T06:21:40.949Z,7.61
2018-12-09T06:22:41.948Z,7.68
2018-12-09T06:23:33.371Z,7.73
2018-12-09T06:24:33.363Z,7.69
2018-12-09T06:25:33.384Z,7.74
2018-12-09T06:26:33.377Z,7.88
2018-12-09T06:27:33.340Z,7.78
2018-12-09T06:28:33.318Z,7.91
2018-12-09T06:29:33.310Z,7.91
2018-12-09T06:30:33.336Z,7.87
2018-12-09T06:31:33.290Z,7.98
2018-12-09T06:32:33.350Z,8.02
2018-12-09T06:33:33.267Z,8.06
2018-12-09T06:34:33.290Z,8.06
2018-12-09T06:35:33.242Z,8.09
2018-12-09T06:36:33.283Z,8.05
2018-12-09T06:37:33.252Z,8.14
2018-12-09T06:38:33.217Z,8.13
2018-12-09T06:39:33.205Z,8.14
2018-12-09T06:40:40.746Z,8.19
2018-12-09T06:41:33.181Z,8.26
2018-12-09T06:42:33.218Z,8.38
2018-12-09T06:43:33.167Z,8.46
2018-12-09T06:44:33.156Z,8.56
2018-12-09T06:45:33.137Z,8.52
2018-12-09T06:46:33.209Z,8.42
2018-12-09T06:47:33.116Z,8.56
2018-12-09T06:48:33.128Z,8.55
2018-12-09T06:49:33.132Z,8.63
2018-12-09T06:50:33.097Z,8.70
2018-12-09T06:51:33.088Z,8.68
2018-12-09T06:52:33.064Z,8.83
2018-12-09T06:53:33.127Z,8.71
2018-12-09T06:54:40.651Z,8.74
2018-12-09T06:55:33.030Z,8.71
2018-12-09T06:56:33.044Z,8.78
2018-12-09T06:57:33.009Z,8.81
2018-12-09T06:58:32.997Z,8.81
2018-12-09T06:59:33.090Z,8.85
2018-12-09T07:00:32.975Z,8.71
2018-12-09T07:01:32.970Z,8.70
2018-12-09T07:02:32.961Z,8.75
2018-12-09T07:03:32.939Z,8.80
2018-12-09T07:04:32.994Z,8.80
2018-12-09T07:05:32.919Z,8.78
2018-12-09T07:06:32.908Z,8.74
2018-12-09T07:07:32.902Z,8.77
2018-12-09T07:08:32.904Z,8.86
2018-12-09T07:09:32.910Z,8.88
2018-12-09T07:10:32.868Z,8.95
2018-12-09T07:11:32.859Z,8.93
2018-12-09T07:12:32.849Z,8.86
2018-12-09T07:13:32.870Z,8.88
2018-12-09T07:14:32.837Z,8.95
2018-12-09T07:15:32.832Z,8.83
2018-12-09T07:16:32.803Z,8.96
2018-12-09T07:17:32.796Z,8.99
2018-12-09T07:18:32.789Z,8.99
2018-12-09T07:19:41.343Z,9.04
2018-12-09T07:20:43.040Z,8.95
2018-12-09T07:21:32.748Z,8.96
2018-12-09T07:22:32.812Z,9.04
2018-12-09T07:23:32.764Z,9.11
2018-12-09T07:24:32.720Z,8.96
2018-12-09T07:25:32.711Z,9.04
2018-12-09T07:26:32.722Z,8.96
2018-12-09T07:27:32.727Z,8.96
2018-12-09T07:28:32.672Z,9.09
2018-12-09T07:29:32.659Z,9.12
2018-12-09T07:30:32.665Z,9.04
2018-12-09T07:31:32.643Z,9.12
2018-12-09T07:32:32.721Z,9.09
2018-12-09T07:33:32.691Z,9.12
2018-12-09T07:34:32.607Z,9.12
2018-12-09T07:35:32.595Z,9.08
2018-12-09T07:36:32.610Z,9.16
2018-12-09T07:37:32.612Z,9.09
2018-12-09T07:38:32.565Z,9.09
2018-12-09T07:39:32.553Z,9.14
2018-12-09T07:40:32.557Z,9.23
2018-12-09T07:41:32.534Z,9.18
2018-12-09T07:42:32.555Z,9.23
2018-12-09T07:43:32.680Z,9.19
2018-12-09T07:44:32.499Z,9.24
2018-12-09T07:45:32.490Z,9.29
2018-12-09T07:46:32.516Z,9.24
2018-12-09T07:47:32.503Z,9.26
2018-12-09T07:48:32.458Z,9.26
2018-12-09T07:49:32.493Z,9.22
2018-12-09T07:50:32.438Z,9.24
2018-12-09T07:51:32.423Z,9.26
2018-12-09T07:52:32.425Z,9.29
2018-12-09T07:53:32.430Z,9.23
2018-12-09T07:54:32.450Z,9.24
2018-12-09T07:55:32.385Z,9.24
2018-12-09T07:56:32.375Z,9.29
2018-12-09T07:57:32.360Z,9.32
2018-12-09T07:58:32.380Z,9.34
2018-12-09T07:59:32.353Z,9.36
2018-12-09T08:00:32.368Z,9.30
2018-12-09T08:01:32.316Z,9.26
2018-12-09T08:02:32.307Z,9.22
2018-12-09T08:03:32.338Z,9.30
2018-12-09T08:04:32.287Z,9.29
2018-12-09T08:05:32.273Z,9.33
2018-12-09T08:06:32.288Z,9.30
2018-12-09T08:07:32.268Z,9.24
2018-12-09T08:08:32.248Z,9.33
2018-12-09T08:09:32.253Z,9.37
2018-12-09T08:10:32.254Z,9.36
2018-12-09T08:11:32.211Z,9.36
2018-12-09T08:12:32.205Z,9.32
2018-12-09T08:13:32.194Z,9.36
2018-12-09T08:14:32.240Z,9.33
2018-12-09T08:15:32.169Z,9.40
2018-12-09T08:16:32.173Z,9.34
2018-12-09T08:17:32.149Z,9.33
2018-12-09T08:18:32.145Z,9.33
2018-12-09T08:19:32.154Z,9.40
2018-12-09T08:20:32.142Z,9.32
2018-12-09T08:21:32.120Z,9.34
2018-12-09T08:22:32.150Z,9.33
2018-12-09T08:23:32.148Z,9.32
2018-12-09T08:24:32.099Z,9.36
2018-12-09T08:25:32.088Z,9.32
2018-12-09T08:26:32.083Z,9.48
2018-12-09T08:27:32.045Z,9.40
2018-12-09T08:28:32.061Z,9.44
2018-12-09T08:29:32.027Z,9.44
2018-12-09T08:30:32.026Z,9.47
2018-12-09T08:31:32.013Z,9.42
2018-12-09T08:32:32.109Z,9.41
2018-12-09T08:34:50.755Z,9.51
2018-12-09T08:35:50.761Z,9.47
2018-12-09T08:36:50.718Z,9.45
2018-12-09T08:37:50.718Z,9.45
2018-12-09T08:38:50.740Z,9.54
2018-12-09T08:39:50.687Z,9.45
2018-12-09T08:40:50.678Z,9.42
2018-12-09T08:41:50.705Z,9.42
2018-12-09T08:42:50.682Z,9.44
2018-12-09T08:43:50.690Z,9.50
2018-12-09T08:44:50.630Z,9.41
2018-12-09T08:45:50.620Z,9.44
2018-12-09T08:46:50.701Z,9.51
2018-12-09T08:47:50.625Z,9.47
2018-12-09T08:48:50.607Z,9.44
2018-12-09T08:49:50.590Z,9.44
2018-12-09T08:50:50.568Z,9.45
2018-12-09T08:51:50.564Z,9.44
2018-12-09T08:52:50.667Z,9.44
2018-12-09T08:53:50.534Z,9.44
2018-12-09T08:54:50.542Z,9.47
2018-12-09T08:55:50.542Z,9.52
2018-12-09T08:56:50.522Z,9.48
2018-12-09T08:57:50.524Z,9.50
2018-12-09T08:58:50.534Z,9.54
2018-12-09T08:59:50.471Z,9.48
2018-12-09T09:00:50.464Z,9.45
2018-12-09T09:01:50.444Z,9.52
2018-12-09T09:02:50.518Z,9.47
2018-12-09T09:03:50.428Z,9.51
2018-12-09T09:04:50.416Z,9.54
2018-12-09T09:05:50.404Z,9.51
2018-12-09T09:06:50.416Z,9.51
2018-12-09T09:07:50.388Z,9.51
2018-12-09T09:08:50.391Z,9.44
2018-12-09T09:09:50.366Z,9.48
2018-12-09T09:10:50.379Z,9.44
2018-12-09T09:11:50.335Z,9.52
2018-12-09T09:12:50.353Z,9.42
2018-12-09T09:13:50.364Z,9.42
2018-12-09T09:14:50.303Z,9.40
2018-12-09T09:15:50.356Z,9.37
2018-12-09T09:16:50.283Z,9.36
2018-12-09T09:17:50.291Z,9.36
2018-12-09T09:18:50.353Z,9.33
2018-12-09T09:19:50.250Z,9.36
2018-12-09T09:20:50.236Z,9.34
2018-12-09T09:21:50.223Z,9.23
2018-12-09T09:22:50.221Z,9.32
2018-12-09T09:23:50.221Z,9.30
2018-12-09T09:24:50.231Z,9.33
2018-12-09T09:25:50.199Z,9.37
2018-12-09T09:26:50.184Z,9.27
2018-12-09T09:27:50.161Z,9.26
2018-12-09T09:28:50.190Z,9.26
2018-12-09T09:29:50.137Z,9.27
2018-12-09T09:30:58.783Z,9.29
2018-12-09T09:31:50.171Z,9.24
2018-12-09T09:32:50.133Z,9.27
2018-12-09T09:33:50.095Z,9.27
2018-12-09T09:34:50.113Z,9.24
2018-12-09T09:35:50.083Z,9.23
2018-12-09T09:36:50.070Z,9.24
2018-12-09T09:37:50.070Z,9.26
2018-12-09T09:38:50.128Z,9.27
2018-12-09T09:39:50.119Z,9.26
2018-12-09T09:40:50.137Z,9.16
2018-12-09T09:43:01.604Z,9.26
2018-12-09T09:44:01.598Z,9.19
2018-12-09T09:45:01.598Z,9.26
2018-12-09T09:46:01.598Z,9.29
2018-12-09T09:47:01.557Z,9.24
2018-12-09T09:48:01.553Z,9.24
2018-12-09T09:49:09.429Z,9.23
2018-12-09T09:50:01.573Z,9.27
2018-12-09T09:51:01.552Z,9.27
2018-12-09T09:52:01.517Z,9.23
2018-12-09T09:53:01.491Z,9.24
2018-12-09T09:54:09.027Z,9.26
2018-12-09T09:55:01.490Z,9.24
2018-12-09T09:56:01.502Z,9.14
2018-12-09T09:57:01.470Z,9.14
2018-12-09T09:58:01.447Z,9.12
2018-12-09T09:59:01.436Z,9.15
2018-12-09T10:00:01.420Z,9.12
2018-12-09T10:01:01.510Z,9.09
2018-12-09T10:02:01.407Z,9.14
2018-12-09T10:03:01.390Z,9.06
2018-12-09T10:04:01.432Z,9.08
2018-12-09T10:05:01.371Z,9.04
2018-12-09T10:06:01.370Z,9.01
2018-12-09T10:07:01.369Z,9.06
2018-12-09T10:08:01.376Z,8.96
2018-12-09T10:09:01.329Z,9.04
2018-12-09T10:10:01.362Z,8.92
2018-12-09T10:11:01.304Z,9.03
2018-12-09T10:12:01.381Z,9.11
2018-12-09T10:13:01.298Z,9.08
2018-12-09T10:14:01.267Z,9.09
2018-12-09T10:15:01.255Z,9.09
2018-12-09T10:16:01.252Z,9.11
2018-12-09T10:17:01.299Z,9.15
2018-12-09T10:18:02.725Z,9.08
2018-12-09T10:19:01.215Z,9.12
2018-12-09T10:20:01.206Z,9.14
2018-12-09T10:21:01.192Z,9.12
2018-12-09T10:22:01.212Z,9.09
2018-12-09T10:23:01.248Z,9.12
2018-12-09T10:24:01.161Z,9.11
2018-12-09T10:25:01.166Z,9.09
2018-12-09T10:26:01.143Z,9.14
2018-12-09T10:27:01.125Z,9.11
2018-12-09T10:28:01.181Z,9.08
2018-12-09T10:29:01.120Z,9.03
2018-12-09T10:30:01.102Z,9.09
2018-12-09T10:31:09.921Z,9.03
2018-12-09T10:32:01.096Z,9.08
2018-12-09T10:33:01.066Z,9.16
2018-12-09T10:34:01.076Z,9.03
2018-12-09T10:35:01.115Z,9.09
2018-12-09T10:36:01.055Z,9.12
2018-12-09T10:37:01.021Z,9.11
2018-12-09T10:38:01.031Z,9.14
2018-12-09T10:39:01.045Z,9.11
2018-12-09T10:40:00.998Z,9.18
2018-12-09T10:41:01.005Z,9.12
2018-12-09T10:42:00.972Z,9.08
2018-12-09T10:43:00.967Z,9.26
2018-12-09T10:44:00.971Z,9.22
2018-12-09T10:45:00.932Z,9.22
2018-12-09T10:46:00.939Z,9.22
2018-12-09T10:47:00.953Z,9.29
2018-12-09T10:48:00.901Z,9.29
2018-12-09T10:49:10.647Z,9.15
2018-12-09T10:50:08.423Z,9.26
2018-12-09T10:51:09.454Z,9.24
2018-12-09T10:52:00.859Z,9.27
2018-12-09T10:53:00.847Z,9.30
2018-12-09T10:54:00.839Z,9.30
2018-12-09T10:55:00.891Z,9.26
2018-12-09T10:56:00.816Z,9.24
2018-12-09T10:57:00.957Z,9.23
2018-12-09T10:58:00.807Z,9.12
2018-12-09T10:59:00.787Z,9.14
2018-12-09T11:00:00.901Z,9.22
2018-12-09T11:01:00.781Z,9.12
2018-12-09T11:02:00.756Z,9.14
2018-12-09T11:03:00.764Z,9.12
2018-12-09T11:04:00.738Z,9.12
2018-12-09T11:05:00.727Z,9.18
2018-12-09T11:06:00.813Z,9.23
2018-12-09T11:07:00.706Z,9.12
2018-12-09T11:08:00.688Z,9.08
2018-12-09T11:09:00.691Z,9.12
2018-12-09T11:10:00.678Z,9.11
2018-12-09T11:11:00.690Z,9.06
2018-12-09T11:12:00.668Z,9.08
2018-12-09T11:13:00.635Z,9.09
2018-12-09T11:14:00.651Z,9.14
2018-12-09T11:15:00.619Z,9.14
2018-12-09T11:16:00.605Z,9.12
2018-12-09T11:17:00.657Z,9.06
2018-12-09T11:18:00.588Z,9.14
2018-12-09T11:19:00.570Z,9.11
2018-12-09T11:20:00.569Z,9.15
2018-12-09T11:21:00.598Z,9.14
2018-12-09T11:22:00.539Z,9.14
2018-12-09T11:23:00.637Z,9.14
2018-12-09T11:24:00.551Z,9.12
2018-12-09T11:25:00.551Z,9.12
2018-12-09T11:27:18.011Z,8.99
2018-12-09T11:28:18.031Z,9.12
2018-12-09T11:29:26.954Z,9.09
2018-12-09T11:31:35.447Z,9.09
2018-12-09T11:33:57.198Z,9.03
2018-12-09T11:34:57.185Z,9.06
2018-12-09T11:35:57.138Z,9.03
2018-12-09T11:36:57.175Z,9.09
2018-12-09T11:39:16.797Z,9.01
2018-12-09T11:41:26.518Z,8.99
2018-12-09T11:42:26.495Z,8.98
2018-12-09T11:43:26.492Z,8.95
2018-12-09T11:44:26.461Z,8.93
2018-12-09T11:45:26.440Z,9.01
2018-12-09T11:46:33.979Z,9.03
2018-12-09T11:47:26.458Z,8.90
2018-12-09T11:48:26.422Z,8.95
2018-12-09T11:49:33.948Z,8.83
2018-12-09T11:50:35.039Z,8.81
2018-12-09T11:51:33.497Z,8.86
2018-12-09T11:52:34.004Z,8.78
2018-12-09T11:53:36.650Z,8.83
2018-12-09T11:54:26.395Z,8.81
2018-12-09T11:55:34.257Z,8.80
2018-12-09T11:57:37.622Z,8.83
2018-12-09T11:58:47.955Z,8.77
2018-12-09T12:00:30.436Z,8.83
2018-12-09T12:02:41.886Z,8.78
2018-12-09T12:05:14.944Z,8.92
2018-12-09T12:06:14.919Z,8.89
2018-12-09T12:07:14.911Z,8.85
2018-12-09T12:08:15.418Z,8.81
2018-12-09T12:09:23.815Z,8.90
2018-12-09T12:10:14.839Z,8.90
2018-12-09T12:11:14.827Z,8.92
2018-12-09T12:12:14.818Z,8.93
2018-12-09T12:13:14.812Z,8.86
2018-12-09T12:14:14.820Z,8.95
2018-12-09T12:15:14.809Z,8.93
2018-12-09T12:16:14.779Z,8.93
2018-12-09T12:17:14.796Z,8.85
2018-12-09T12:18:14.751Z,8.83
2018-12-09T12:19:14.748Z,8.89
2018-12-09T12:20:14.775Z,8.96
2018-12-09T12:21:14.731Z,8.89
2018-12-09T12:22:14.731Z,8.98
2018-12-09T12:23:14.697Z,8.96
2018-12-09T12:24:14.686Z,9.03
2018-12-09T12:25:14.700Z,9.01
2018-12-09T12:26:14.669Z,8.95
2018-12-09T12:27:14.659Z,8.90
2018-12-09T12:28:14.651Z,8.93
2018-12-09T12:29:14.666Z,8.99
2018-12-09T12:30:14.646Z,8.89
2018-12-09T12:31:14.615Z,8.96
2018-12-09T12:32:14.604Z,8.96
2018-12-09T12:33:14.593Z,9.06
2018-12-09T12:34:14.585Z,9.06
2018-12-09T12:35:14.627Z,9.09
2018-12-09T12:36:14.558Z,9.14
2018-12-09T12:37:14.557Z,9.12
2018-12-09T12:38:14.656Z,9.11
2018-12-09T12:39:14.538Z,9.04
2018-12-09T12:40:14.520Z,9.11
2018-12-09T12:41:14.530Z,9.08
2018-12-09T12:42:14.537Z,9.14
2018-12-09T12:43:14.483Z,9.09
2018-12-09T12:44:14.502Z,9.11
2018-12-09T12:45:14.553Z,9.11
2018-12-09T12:46:14.549Z,9.09
2018-12-09T12:47:14.444Z,9.06
2018-12-09T12:48:14.542Z,9.12
2018-12-09T12:49:14.481Z,9.11
2018-12-09T12:50:14.509Z,9.11
2018-12-09T12:51:14.409Z,8.99
2018-12-09T12:52:14.418Z,8.95
2018-12-09T12:53:14.438Z,9.08
2018-12-09T12:54:14.382Z,9.11
2018-12-09T12:55:14.394Z,9.12
2018-12-09T12:56:14.440Z,9.01
2018-12-09T12:57:14.349Z,9.06
2018-12-09T12:58:14.375Z,8.93
2018-12-09T12:59:14.335Z,8.92
2018-12-09T13:00:14.354Z,8.95
2018-12-09T13:01:14.301Z,8.96
2018-12-09T13:02:24.451Z,8.96
2018-12-09T13:03:14.283Z,9.03
2018-12-09T13:04:14.272Z,8.86
2018-12-09T13:05:14.257Z,8.86
2018-12-09T13:06:14.276Z,8.86
2018-12-09T13:07:14.304Z,8.85
2018-12-09T13:08:14.230Z,8.77
2018-12-09T13:09:14.222Z,8.70
2018-12-09T13:10:14.279Z,8.63
2018-12-09T13:11:14.199Z,8.53
2018-12-09T13:12:14.215Z,8.46
2018-12-09T13:13:14.171Z,8.32
2018-12-09T13:14:14.155Z,8.09
2018-12-09T13:15:14.166Z,8.05
2018-12-09T13:16:14.131Z,7.98
2018-12-09T13:17:14.125Z,7.88
2018-12-09T13:18:14.141Z,7.94
2018-12-09T13:19:14.104Z,7.92
2018-12-09T13:20:14.108Z,7.83
2018-12-09T13:21:14.080Z,7.86
2018-12-09T13:22:14.117Z,7.76
2018-12-09T13:23:14.066Z,7.71
2018-12-09T13:24:14.044Z,7.66
2018-12-09T13:25:14.072Z,7.61
2018-12-09T13:26:14.091Z,7.54
2018-12-09T13:27:14.033Z,7.52
2018-12-09T13:28:14.003Z,7.40
2018-12-09T13:29:13.994Z,7.39
2018-12-09T13:30:13.986Z,7.39
2018-12-09T13:31:13.984Z,7.36
2018-12-09T13:32:14.000Z,7.36
2018-12-09T13:33:14.026Z,7.33
2018-12-09T13:34:13.934Z,7.31